Flight Track Log - Related Links

Times and Time Zones

All times are in EDT time to prevent confusion due to time zone crossing. See the UCA596 flight status page for this flight to view local times or setup timezone preferences in your user account.

Time Position Orientation Groundspeed Altitude Reporting Facility
EDT Latitude Longitude Course Direction KTS MPH feet Rate Location/Type
Sat 01:05:37 PM 38.9500 -77.5000 339° North 130 150 1,700  Level Potomac TRACON
Sat 01:06:31 PM 38.9833 -77.5167 339° North 164 189 3,100 1,737 Climbing Potomac TRACON
Sat 01:07:31 PM 39.0167 -77.5500 322° Northwest 163 188 5,000 1,706 Climbing Potomac TRACON
Sat 01:09:55 PM 39.1372 -77.5531 359° North 176 203 8,900 1,485 Climbing Washington Center
Sat 01:10:53 PM 39.1975 -77.5547 359° North 187 215 10,000 1,200 Climbing Washington Center
Sat 01:11:55 PM 39.2622 -77.5539 North 212 244 11,300 1,300 Climbing Washington Center
Sat 01:12:53 PM 39.3292 -77.5367 11° North 228 262 12,600 864 Climbing Washington Center
Sat 01:13:53 PM 39.4025 -77.5147 13° North 241 277 13,000 198 Climbing Washington Center
Sat 01:14:54 PM 39.4797 -77.4978 10° North 266 306 13,000 400 Level Washington Center
Sat 01:15:53 PM 39.5614 -77.4758 12° North 286 329 13,800 1,111 Climbing Washington Center
Sat 01:17:09 PM 39.6553 -77.4533 10° North 273 314 15,500 1,235 Climbing New York Center
Sat 01:18:09 PM 39.7219 -77.4517 North 268 308 16,600 750 Climbing New York Center
Sat 01:19:09 PM 39.8036 -77.4486 North 263 303 17,000 200 Climbing New York Center
Sat 01:20:09 PM 39.8806 -77.4503 359° North 288 331 17,000  Level New York Center
Sat 01:21:09 PM 39.9767 -77.4489 North 304 350 17,000 150 Level New York Center
Sat 01:22:09 PM 40.0558 -77.4483 360° North 310 357 17,300 850 Climbing New York Center
Sat 01:23:09 PM 40.1436 -77.4458 North 298 343 18,700 850 Climbing New York Center
Sat 01:24:09 PM 40.2144 -77.4444 North 288 331 19,000 150 Climbing New York Center
Sat 01:25:09 PM 40.3064 -77.4450 360° North 295 339 19,000  Level New York Center
Sat 01:26:09 PM 40.3878 -77.4419 North 295 339 19,000  Level New York Center
Sat 01:27:09 PM 40.4731 -77.4447 359° North 295 339 19,000  Level New York Center
Sat 01:28:09 PM 40.5544 -77.4417 North 295 339 19,000 -50 Level New York Center
Sat 01:29:09 PM 40.6333 -77.4139 15° North 295 339 18,900 -600 Descending New York Center
Sat 01:30:09 PM 40.7017 -77.3467 37° Northeast 304 350 17,800 -950 Descending New York Center
Sat 01:31:09 PM 40.7783 -77.2800 33° Northeast 322 371 17,000 -450 Descending New York Center
Sat 01:32:09 PM 40.8525 -77.2156 33° Northeast 322 371 16,900 -50 Descending New York Center
Sat 01:33:09 PM 40.9247 -77.1539 33° Northeast 317 365 16,900 50 Level New York Center
Sat 01:34:09 PM 40.9906 -77.0911 36° Northeast 312 359 17,000 50 Climbing New York Center
Sat 01:35:09 PM 41.0606 -77.0289 34° Northeast 307 353 17,000  Level New York Center
Sat 01:36:09 PM 41.1328 -76.9639 34° Northeast 302 348 17,000  Level New York Center
Sat 01:37:09 PM 41.2028 -76.9014 34° Northeast 302 348 17,000  Level New York Center
Sat 01:38:09 PM 41.2747 -76.8389 33° Northeast 302 348 17,000  Level New York Center
Sat 01:39:09 PM 41.3467 -76.7733 34° Northeast 302 348 17,000  Level New York Center
Sat 01:40:09 PM 41.4167 -76.7106 34° Northeast 302 348 17,000 50 Level New York Center
Sat 01:41:09 PM 41.4931 -76.6397 35° Northeast 302 348 17,100 -200 Climbing New York Center
Sat 01:42:09 PM 41.5628 -76.5736 35° Northeast 302 348 16,600 -1,100 Descending New York Center
Sat 01:43:09 PM 41.6369 -76.5053 35° Northeast 309 356 14,900 -1,700 Descending New York Center
Sat 01:44:09 PM 41.7022 -76.4469 34° Northeast 309 356 13,200 -1,600 Descending New York Center
Sat 01:45:09 PM 41.7717 -76.3889 32° Northeast 299 344 11,700 -1,750 Descending New York Center
Sat 01:46:09 PM 41.8394 -76.3194 37° Northeast 284 327 9,700 -1,900 Descending New York Center
Sat 01:47:09 PM 41.9003 -76.2658 33° Northeast 274 315 7,900 -1,800 Descending New York Center
Sat 01:48:09 PM 41.9589 -76.2122 34° Northeast 263 303 6,100 -1,500 Descending New York Center
Sat 01:49:09 PM 42.0089 -76.1661 34° Northeast 252 290 4,900 -1,050 Descending New York Center
Sat 01:50:09 PM 42.0697 -76.1125 33° Northeast 252 290 4,000 -450 Descending New York Center
Sat 01:51:09 PM 42.1300 -76.1117 North 219 252 4,000  Level New York Center
Sat 01:52:09 PM 42.1922 -76.1194 355° North 219 252 4,000  Level New York Center
Sat 01:53:09 PM 42.2525 -76.1244 356° North 219 252 4,000 50 Level New York Center
Sat 01:54:09 PM 42.3042 -76.1286 357° North 206 237 4,100  Climbing New York Center
Sat 01:55:09 PM 42.3217 -76.0628 70° East 186 214 4,000 -350 Descending New York Center
Sat 01:56:09 PM 42.2753 -76.0339 155° Southeast 71 82 3,400 -600 Descending New York Center
Sat 01:58:00 PM 42.2084 -75.9796 149° Southeast  Level Estimated
Sat 02:05:00 PM 42.2084 -75.9796 35° Northeast  Level Estimated
Sat 02:06:00 PM 42.2084 -75.9796 35° Northeast  Level Estimated
Sat 02:07:00 PM 42.2084 -75.9796 35° Northeast  Level Estimated
Sat 02:08:00 PM 42.2084 -75.9796 35° Northeast  Level Estimated

Login

Don't have an account? Register now (free) for customized features, flight alerts, and more!